Time;durP1;ratioP1;P1;durP2;ratioP2;P2;SDS_P1;SDS_P2;PMS_P1;PMS_P2;Temp;Humidity;BMP_temperature;BMP_pressure;BME280_temperature;BME280_humidity;BME280_pressure;Samples;Min_cycle;Max_cycle;Signal;HPM_P1;HPM_P2
2022/05/18 00:02:21;;;;;;;;;;;;;;;17.02;45.84;100200.25;4809625;29;821;-66
2022/05/18 00:04:46;;;;;;;;;;;;;;;17.28;44.36;100195.31;4809357;29;842;-67
2022/05/18 00:07:12;;;;;;;;;;;;;;;17.44;43.82;100195.94;4809715;29;884;-66
2022/05/18 00:09:37;;;;;;;;;;;;;;;17.54;44.25;100189.47;4809513;29;732;-65
2022/05/18 00:12:04;;;;;;;;;;;;;;;17.66;44.70;100181.63;4809583;29;839;-65
2022/05/18 00:14:30;;;;;;;;;;;;;;;17.81;44.70;100199.03;4809547;29;820;-65
2022/05/18 00:16:56;;;;;;;;;;;;;;;17.86;44.78;100185.22;4809329;29;897;-67
2022/05/18 00:19:21;;;;;;;;;;;;;;;17.93;45.04;100194.75;4809164;29;1982;-67
2022/05/18 00:21:46;;;;;;;;;;;;;;;17.95;44.94;100189.78;4809229;29;852;-66
2022/05/18 00:24:13;;;;;;;;;;;;;;;18.02;44.83;100194.09;4809787;29;757;-67
2022/05/18 00:26:38;;;;;;;;;;;;;;;18.09;45.06;100205.53;4809468;29;1376;-66
2022/05/18 00:29:04;;;;;;;;;;;;;;;18.18;45.01;100246.97;4808868;29;1351;-66
2022/05/18 00:31:29;;;;;;;;;;;;;;;18.21;45.09;100247.19;4809358;29;823;-64
2022/05/18 00:33:55;;;;;;;;;;;;;;;18.20;44.97;100255.75;4809477;29;1469;-65
2022/05/18 00:36:20;;;;;;;;;;;;;;;18.19;44.76;100271.44;4809658;29;784;-65
2022/05/18 00:38:46;;;;;;;;;;;;;;;18.19;44.80;100265.94;4808832;29;1915;-65
2022/05/18 00:41:11;;;;;;;;;;;;;;;18.19;44.42;100276.09;4808996;29;989;-65
2022/05/18 00:43:38;;;;;;;;;;;;;;;18.09;43.85;100261.41;4809021;29;908;-66
2022/05/18 00:46:04;;;;;;;;;;;;;;;17.96;43.09;100240.09;4808779;29;840;-65
2022/05/18 00:48:30;;;;;;;;;;;;;;;17.85;42.04;100233.06;4809114;29;876;-66
2022/05/18 00:50:55;;;;;;;;;;;;;;;17.70;41.46;100232.16;4809253;29;874;-65
2022/05/18 00:53:31;;;;;;;;;;;;;;;17.58;40.85;100218.84;4807537;29;841;-66
2022/05/18 00:56:00;;;;;;;;;;;;;;;17.52;40.34;100213.72;4807206;29;831;-66
2022/05/18 00:58:36;;;;;;;;;;;;;;;17.39;40.21;100213.31;4807666;29;1976;-66
2022/05/18 01:01:01;;;;;;;;;;;;;;;17.34;40.36;100221.59;4804395;29;882;-66
2022/05/18 01:03:43;;;;;;;;;;;;;;;17.34;39.99;100218.03;4806043;29;865;-66
2022/05/18 01:06:18;;;;;;;;;;;;;;;17.28;39.99;100217.28;4808277;29;778;-65
2022/05/18 01:08:54;;;;;;;;;;;;;;;17.17;39.62;100224.00;4808788;29;801;-67
2022/05/18 01:11:20;;;;;;;;;;;;;;;17.16;39.55;100216.88;4790458;29;790;-66
2022/05/18 01:13:45;;;;;;;;;;;;;;;17.16;39.44;100212.19;4808416;29;806;-66
2022/05/18 01:16:11;;;;;;;;;;;;;;;17.22;40.16;100223.94;4808687;29;1486;-65
2022/05/18 01:18:36;;;;;;;;;;;;;;;17.37;41.25;100223.75;4807613;29;1973;-64
2022/05/18 01:21:02;;;;;;;;;;;;;;;17.67;42.99;100237.44;4803706;29;803;-65
2022/05/18 01:23:35;;;;;;;;;;;;;;;17.93;44.61;100235.19;4807752;29;965;-65
2022/05/18 01:26:01;;;;;;;;;;;;;;;18.22;46.52;100237.00;4809192;29;721;-66
2022/05/18 01:28:29;;;;;;;;;;;;;;;18.47;47.51;100231.09;4808262;29;1502;-65
2022/05/18 01:30:54;;;;;;;;;;;;;;;18.72;48.16;100253.00;4808511;29;910;-65
2022/05/18 01:33:21;;;;;;;;;;;;;;;17.93;50.34;100280.03;4808345;29;1083;-65
2022/05/18 01:35:47;;;;;;;;;;;;;;;17.70;49.54;100308.34;4808526;29;1399;-65
2022/05/18 01:38:12;;;;;;;;;;;;;;;16.45;51.09;100361.81;4808705;29;1915;-66
2022/05/18 01:40:41;;;;;;;;;;;;;;;16.75;48.17;100364.38;4808685;29;881;-65
2022/05/18 01:43:21;;;;;;;;;;;;;;;17.16;44.60;100370.72;4808439;29;898;-65
2022/05/18 01:45:51;;;;;;;;;;;;;;;17.14;42.61;100394.88;4803031;29;910;-67
2022/05/18 01:48:16;;;;;;;;;;;;;;;17.10;41.46;100411.94;4802483;29;734;-66
2022/05/18 01:50:42;;;;;;;;;;;;;;;17.10;40.36;100425.69;4808581;29;1143;-64
2022/05/18 01:53:08;;;;;;;;;;;;;;;17.03;40.55;100411.47;4807245;29;852;-65
2022/05/18 01:55:33;;;;;;;;;;;;;;;17.13;40.79;100401.50;4808461;29;745;-64
2022/05/18 01:57:59;;;;;;;;;;;;;;;17.31;41.88;100367.03;4807995;29;1907;-64
2022/05/18 02:00:24;;;;;;;;;;;;;;;17.44;42.68;100350.66;4808095;29;882;-64
2022/05/18 02:02:50;;;;;;;;;;;;;;;17.57;43.80;100364.84;4808078;29;824;-66
2022/05/18 02:05:15;;;;;;;;;;;;;;;17.71;44.46;100387.81;4808500;29;789;-66
2022/05/18 02:07:41;;;;;;;;;;;;;;;17.85;44.84;100398.09;4808507;29;825;-66
2022/05/18 02:10:06;;;;;;;;;;;;;;;17.95;44.91;100387.03;4807516;29;844;-66
2022/05/18 02:12:32;;;;;;;;;;;;;;;17.93;45.58;100389.25;4808559;29;757;-67
2022/05/18 02:14:58;;;;;;;;;;;;;;;18.06;45.30;100385.81;4807829;29;874;-66
2022/05/18 02:17:24;;;;;;;;;;;;;;;18.06;45.50;100376.72;4808275;29;917;-66
2022/05/18 02:19:49;;;;;;;;;;;;;;;18.12;45.18;100379.13;4808542;29;1919;-67
2022/05/18 02:22:15;;;;;;;;;;;;;;;18.15;45.29;100366.72;4809575;29;950;-66
2022/05/18 02:24:40;;;;;;;;;;;;;;;18.13;45.02;100352.41;4811608;29;835;-67
2022/05/18 02:27:06;;;;;;;;;;;;;;;18.17;44.99;100338.88;4811882;29;876;-66
2022/05/18 02:29:31;;;;;;;;;;;;;;;18.17;44.78;100338.88;4810840;29;1264;-66
2022/05/18 02:31:57;;;;;;;;;;;;;;;18.09;44.26;100354.94;4810973;29;1046;-65
2022/05/18 02:34:22;;;;;;;;;;;;;;;17.96;43.15;100350.16;4811456;29;817;-66
2022/05/18 02:36:48;;;;;;;;;;;;;;;17.78;42.44;100341.53;4810408;29;902;-66
2022/05/18 02:39:14;;;;;;;;;;;;;;;17.66;41.67;100341.09;4811594;29;1973;-64
2022/05/18 02:41:39;;;;;;;;;;;;;;;17.57;41.25;100331.84;4811567;29;815;-66
2022/05/18 02:44:05;;;;;;;;;;;;;;;17.46;40.71;100336.66;4810735;29;850;-65
2022/05/18 02:46:30;;;;;;;;;;;;;;;17.40;40.42;100333.13;4810890;29;909;-66
2022/05/18 02:48:56;;;;;;;;;;;;;;;17.36;40.14;100321.06;4810703;29;864;-64
2022/05/18 02:51:22;;;;;;;;;;;;;;;17.28;40.03;100318.97;4811037;29;746;-65
2022/05/18 02:53:48;;;;;;;;;;;;;;;17.27;39.83;100315.38;4810883;29;930;-66
2022/05/18 02:56:15;;;;;;;;;;;;;;;17.22;39.95;100320.09;4810983;29;809;-67
2022/05/18 02:58:42;;;;;;;;;;;;;;;17.14;39.70;100320.72;4810545;29;1978;-65
2022/05/18 03:01:14;;;;;;;;;;;;;;;17.11;39.74;100324.88;4810430;29;877;-65
2022/05/18 03:03:40;;;;;;;;;;;;;;;16.96;39.61;100312.09;4810591;29;786;-65
2022/05/18 03:06:06;;;;;;;;;;;;;;;17.05;39.55;100332.31;4811073;29;842;-65
2022/05/18 03:08:32;;;;;;;;;;;;;;;17.09;40.03;100308.66;4810592;29;812;-66
2022/05/18 03:10:58;;;;;;;;;;;;;;;17.23;41.01;100300.56;4810656;29;983;-64
2022/05/18 03:13:23;;;;;;;;;;;;;;;17.39;41.79;100287.50;4810193;29;847;-64
2022/05/18 03:15:49;;;;;;;;;;;;;;;17.53;42.49;100278.56;4810341;29;858;-66
2022/05/18 03:18:14;;;;;;;;;;;;;;;17.67;42.98;100270.41;4810431;29;1970;-64
2022/05/18 03:23:33;;;;;;;;;;;;;;;17.78;43.65;100266.44;4810610;29;777;-64
2022/05/18 03:25:59;;;;;;;;;;;;;;;17.84;43.88;100264.44;4810310;29;749;-65
2022/05/18 03:28:24;;;;;;;;;;;;;;;17.89;44.18;100261.63;4805262;29;1385;-65
2022/05/18 03:30:50;;;;;;;;;;;;;;;17.93;44.33;100262.72;4804205;29;955;-65
2022/05/18 03:33:15;;;;;;;;;;;;;;;18.05;44.21;100276.84;4807766;29;925;-65
2022/05/18 03:35:41;;;;;;;;;;;;;;;18.06;44.50;100273.00;4810843;29;846;-65
2022/05/18 03:38:06;;;;;;;;;;;;;;;18.14;44.42;100268.75;4809856;29;1903;-65
2022/05/18 03:40:35;;;;;;;;;;;;;;;18.13;44.54;100278.94;4810032;29;811;-63
2022/05/18 03:43:00;;;;;;;;;;;;;;;18.14;44.48;100296.28;4809930;29;824;-64
2022/05/18 03:45:26;;;;;;;;;;;;;;;18.15;44.70;100308.91;4809657;29;818;-64
2022/05/18 03:47:51;;;;;;;;;;;;;;;18.20;44.64;100322.63;4810251;29;945;-62
2022/05/18 03:50:17;;;;;;;;;;;;;;;18.19;44.43;100326.47;4809396;29;971;-61
2022/05/18 03:52:43;;;;;;;;;;;;;;;18.20;44.25;100338.28;4809685;29;783;-58
2022/05/18 03:55:09;;;;;;;;;;;;;;;18.20;44.35;100335.53;4809894;29;845;-59
2022/05/18 03:57:34;;;;;;;;;;;;;;;18.33;45.45;100343.09;4809579;29;905;-59
2022/05/18 03:59:59;;;;;;;;;;;;;;;18.24;44.17;100342.94;4809982;29;1911;-59
2022/05/18 04:02:25;;;;;;;;;;;;;;;18.10;43.07;100344.75;4809432;29;749;-59
2022/05/18 04:04:50;;;;;;;;;;;;;;;17.94;42.30;100355.13;4808954;29;1034;-59
2022/05/18 04:07:16;;;;;;;;;;;;;;;17.82;41.20;100344.50;4809892;29;943;-58
2022/05/18 04:09:41;;;;;;;;;;;;;;;17.75;40.60;100358.63;4809908;29;788;-58
2022/05/18 04:12:08;;;;;;;;;;;;;;;17.61;40.49;100365.91;4809561;29;851;-59
2022/05/18 04:14:33;;;;;;;;;;;;;;;17.51;40.06;100360.50;4809865;29;849;-58
2022/05/18 04:16:59;;;;;;;;;;;;;;;17.43;39.98;100356.44;4808980;29;985;-58
2022/05/18 04:19:24;;;;;;;;;;;;;;;17.43;39.69;100354.53;4809266;29;1907;-59
2022/05/18 04:21:50;;;;;;;;;;;;;;;17.36;39.29;100355.97;4809617;29;830;-58
2022/05/18 04:24:15;;;;;;;;;;;;;;;17.35;39.19;100357.91;4809341;29;1178;-58
2022/05/18 04:26:40;;;;;;;;;;;;;;;17.26;39.31;100365.13;4809132;29;892;-58
2022/05/18 04:29:06;;;;;;;;;;;;;;;17.30;38.95;100365.38;4809389;29;1024;-58
2022/05/18 04:31:31;;;;;;;;;;;;;;;17.17;39.12;100355.88;4808497;29;874;-58
2022/05/18 04:33:57;;;;;;;;;;;;;;;17.15;39.04;100350.66;4809104;29;1185;-58
2022/05/18 04:36:22;;;;;;;;;;;;;;;17.15;39.27;100353.38;4809254;29;883;-59
2022/05/18 04:38:48;;;;;;;;;;;;;;;17.22;39.83;100358.56;4809564;29;1972;-59
2022/05/18 04:41:13;;;;;;;;;;;;;;;17.41;40.57;100356.72;4808799;29;749;-59
2022/05/18 04:43:38;;;;;;;;;;;;;;;17.55;41.50;100359.63;4809254;29;747;-63
2022/05/18 04:46:05;;;;;;;;;;;;;;;17.67;42.15;100367.50;4808383;29;918;-63
2022/05/18 04:48:31;;;;;;;;;;;;;;;17.80;42.54;100368.72;4809012;29;836;-63
2022/05/18 04:50:56;;;;;;;;;;;;;;;17.89;42.92;100371.66;4809332;29;773;-63
2022/05/18 04:53:22;;;;;;;;;;;;;;;17.97;42.95;100378.50;4808190;29;987;-61
2022/05/18 04:55:48;;;;;;;;;;;;;;;17.94;43.36;100377.13;4808268;29;1256;-63
2022/05/18 04:58:13;;;;;;;;;;;;;;;18.00;43.75;100381.47;4808943;29;1978;-62
2022/05/18 05:00:39;;;;;;;;;;;;;;;18.06;43.78;100376.72;4808258;29;1323;-62
2022/05/18 05:03:04;;;;;;;;;;;;;;;18.12;43.66;100381.88;4808586;29;1260;-63
2022/05/18 05:05:30;;;;;;;;;;;;;;;18.16;43.89;100378.53;4808838;29;1286;-64
2022/05/18 05:07:56;;;;;;;;;;;;;;;18.24;43.85;100372.38;4807326;29;1085;-64
2022/05/18 05:10:21;;;;;;;;;;;;;;;18.22;44.19;100380.13;4809020;29;748;-65
2022/05/18 05:12:47;;;;;;;;;;;;;;;18.27;44.21;100386.38;4808398;29;1062;-64
2022/05/18 05:15:12;;;;;;;;;;;;;;;18.13;43.91;100391.78;4808817;29;955;-62
2022/05/18 05:17:38;;;;;;;;;;;;;;;18.08;43.55;100391.81;4808778;29;820;-64
2022/05/18 05:20:04;;;;;;;;;;;;;;;17.95;42.44;100387.84;4808709;29;1903;-63
2022/05/18 05:22:29;;;;;;;;;;;;;;;17.73;41.63;100396.56;4808493;29;844;-64
2022/05/18 05:24:55;;;;;;;;;;;;;;;17.63;40.81;100410.44;4808829;29;836;-65
2022/05/18 05:27:20;;;;;;;;;;;;;;;17.50;40.59;100416.59;4808030;29;1012;-65
2022/05/18 05:29:46;;;;;;;;;;;;;;;17.44;39.74;100413.88;4808775;29;825;-64
2022/05/18 05:32:11;;;;;;;;;;;;;;;17.35;39.91;100421.13;4802748;29;1004;-64
2022/05/18 05:34:37;;;;;;;;;;;;;;;17.30;39.21;100423.91;4807793;29;764;-64
2022/05/18 05:37:02;;;;;;;;;;;;;;;17.20;39.68;100434.97;4808391;29;1192;-62
2022/05/18 05:39:28;;;;;;;;;;;;;;;17.26;39.51;100439.31;4808762;29;1964;-64
2022/05/18 05:41:53;;;;;;;;;;;;;;;17.17;39.92;100461.09;4808682;29;973;-64
2022/05/18 05:44:19;;;;;;;;;;;;;;;17.18;39.70;100467.41;4808224;29;971;-64
2022/05/18 05:46:45;;;;;;;;;;;;;;;17.10;39.12;100471.59;4805743;29;1209;-64
2022/05/18 05:49:10;;;;;;;;;;;;;;;17.04;39.49;100473.53;4808672;29;760;-64
2022/05/18 05:51:36;;;;;;;;;;;;;;;17.21;40.04;100472.34;4808739;29;775;-64
2022/05/18 05:54:01;;;;;;;;;;;;;;;17.44;41.82;100465.28;4808475;29;818;-63
2022/05/18 05:56:27;;;;;;;;;;;;;;;17.77;43.97;100473.81;4808300;29;852;-65
2022/05/18 05:58:52;;;;;;;;;;;;;;;18.09;45.41;100469.66;4812006;29;1966;-64
2022/05/18 06:01:18;;;;;;;;;;;;;;;18.33;46.59;100461.44;4811821;29;890;-65
2022/05/18 06:03:43;;;;;;;;;;;;;;;18.70;47.80;100459.06;4811141;29;1086;-64
2022/05/18 06:06:10;;;;;;;;;;;;;;;18.18;49.92;100451.41;4812357;29;765;-65
2022/05/18 06:08:35;;;;;;;;;;;;;;;17.53;49.93;100458.06;4811748;29;1042;-65
2022/05/18 06:11:01;;;;;;;;;;;;;;;16.98;49.23;100455.44;4810938;29;1117;-65
2022/05/18 06:13:27;;;;;;;;;;;;;;;16.40;48.42;100470.50;4811014;29;972;-66
2022/05/18 06:15:53;;;;;;;;;;;;;;;17.01;44.60;100490.59;4810878;29;1209;-65
2022/05/18 06:18:18;;;;;;;;;;;;;;;17.30;43.40;100489.03;4805129;29;1950;-64
2022/05/18 06:20:47;;;;;;;;;;;;;;;17.43;43.79;100483.72;4809868;29;1284;-65
2022/05/18 06:23:13;;;;;;;;;;;;;;;17.61;44.05;100497.88;4809500;29;1044;-64
2022/05/18 06:25:38;;;;;;;;;;;;;;;17.74;44.21;100502.72;4809167;29;1297;-65
2022/05/18 06:28:04;;;;;;;;;;;;;;;17.82;44.77;100498.50;4810865;29;1263;-65
2022/05/18 06:30:29;;;;;;;;;;;;;;;17.89;44.80;100512.78;4811573;29;841;-65
2022/05/18 06:32:55;;;;;;;;;;;;;;;17.99;45.02;100511.84;4811354;29;915;-64
2022/05/18 06:35:20;;;;;;;;;;;;;;;18.03;45.34;100532.19;4811274;29;849;-65
2022/05/18 06:37:46;;;;;;;;;;;;;;;18.03;45.40;100543.19;4810591;29;1030;-64
2022/05/18 06:40:12;;;;;;;;;;;;;;;18.09;45.67;100538.47;4810563;29;1912;-65
2022/05/18 06:42:38;;;;;;;;;;;;;;;18.18;45.50;100560.69;4810954;29;1343;-64
2022/05/18 06:45:05;;;;;;;;;;;;;;;18.24;45.42;100574.13;4811393;29;1240;-64
2022/05/18 06:47:30;;;;;;;;;;;;;;;18.23;45.69;100590.91;4811242;29;856;-64
2022/05/18 06:49:56;;;;;;;;;;;;;;;18.35;45.52;100596.03;4810722;29;1074;-65
2022/05/18 06:52:21;;;;;;;;;;;;;;;18.37;45.32;100607.56;4811656;29;1009;-64
2022/05/18 06:54:47;;;;;;;;;;;;;;;18.33;45.16;100606.50;4811049;29;1154;-64
2022/05/18 06:57:12;;;;;;;;;;;;;;;18.30;45.00;100607.91;4810980;29;1240;-65
2022/05/18 06:59:38;;;;;;;;;;;;;;;18.23;44.09;100607.41;4805899;29;1907;-64
2022/05/18 07:02:03;;;;;;;;;;;;;;;18.02;43.05;100607.59;4808633;29;1094;-64
2022/05/18 07:04:29;;;;;;;;;;;;;;;17.92;42.70;100610.41;4810721;29;873;-62
2022/05/18 07:06:54;;;;;;;;;;;;;;;17.90;42.83;100609.84;4811109;29;698;-65
2022/05/18 07:09:21;;;;;;;;;;;;;;;17.75;41.76;100619.88;4810320;29;863;-66
2022/05/18 07:11:49;;;;;;;;;;;;;;;17.60;41.23;100630.97;4810396;29;941;-66
2022/05/18 07:14:15;;;;;;;;;;;;;;;17.47;40.56;100615.09;4808019;29;878;-65
2022/05/18 07:16:40;;;;;;;;;;;;;;;17.41;40.03;100614.28;4809913;29;1036;-67
2022/05/18 07:19:06;;;;;;;;;;;;;;;17.27;40.08;100636.06;4810488;29;1911;-67
2022/05/18 07:21:31;;;;;;;;;;;;;;;17.24;39.30;100623.72;4810752;29;796;-66
2022/05/18 07:23:57;;;;;;;;;;;;;;;17.18;39.12;100615.75;4810636;29;757;-67
2022/05/18 07:26:24;;;;;;;;;;;;;;;17.17;39.16;100638.88;4804900;29;1036;-67
2022/05/18 07:28:49;;;;;;;;;;;;;;;17.07;39.47;100643.28;4809843;29;1320;-66
2022/05/18 07:31:15;;;;;;;;;;;;;;;17.18;39.75;100673.47;4810773;29;860;-66
2022/05/18 07:33:40;;;;;;;;;;;;;;;17.29;40.80;100680.56;4810177;29;859;-65
2022/05/18 07:36:06;;;;;;;;;;;;;;;17.55;43.77;100691.47;4810186;29;826;-61
2022/05/18 07:38:31;;;;;;;;;;;;;;;17.69;44.63;100676.00;4810104;29;1964;-66
2022/05/18 07:40:57;;;;;;;;;;;;;;;17.47;47.73;100667.31;4809612;29;1058;-61
2022/05/18 07:43:22;;;;;;;;;;;;;;;17.58;49.58;100668.91;4810572;29;780;-62
2022/05/18 07:45:48;;;;;;;;;;;;;;;17.39;51.89;100697.03;4809760;29;878;-62
2022/05/18 07:48:14;;;;;;;;;;;;;;;17.51;50.74;100693.13;4810146;29;786;-63
2022/05/18 07:50:39;;;;;;;;;;;;;;;17.32;51.32;100690.19;4809654;29;1308;-62
2022/05/18 07:53:05;;;;;;;;;;;;;;;17.49;51.02;100681.59;4809374;29;894;-61
2022/05/18 07:55:30;;;;;;;;;;;;;;;17.39;51.87;100694.28;4806726;29;1031;-62
2022/05/18 07:57:55;;;;;;;;;;;;;;;17.19;52.03;100721.84;4809769;29;1050;-63
2022/05/18 08:00:21;;;;;;;;;;;;;;;17.17;51.93;100740.53;4809375;29;2230;-63
2022/05/18 08:02:47;;;;;;;;;;;;;;;16.95;51.95;100725.19;4809507;29;1053;-62
2022/05/18 08:05:12;;;;;;;;;;;;;;;17.23;52.83;100717.44;4809133;29;797;-62
2022/05/18 08:07:39;;;;;;;;;;;;;;;17.01;55.25;100735.06;4808977;29;856;-61
2022/05/18 08:15:32;;;;;;;;;;;;;;;17.77;55.35;100763.41;4809062;29;841;-62
2022/05/18 08:17:58;;;;;;;;;;;;;;;17.86;55.11;100782.09;4809605;29;867;-63
2022/05/18 08:20:24;;;;;;;;;;;;;;;18.18;55.89;100794.63;4808496;29;1981;-63
2022/05/18 08:22:49;;;;;;;;;;;;;;;18.39;56.49;100836.59;4809534;29;836;-67
2022/05/18 08:25:15;;;;;;;;;;;;;;;18.77;56.05;100859.75;4809040;29;853;-62
2022/05/18 08:27:49;;;;;;;;;;;;;;;18.94;56.68;100884.19;4808817;29;1016;-62
2022/05/18 08:30:17;;;;;;;;;;;;;;;18.16;57.13;100838.09;4808726;29;976;-61
2022/05/18 08:32:42;;;;;;;;;;;;;;;17.60;58.00;100853.69;4808548;29;1068;-59
2022/05/18 08:35:08;;;;;;;;;;;;;;;16.98;58.44;100844.66;4808627;29;1078;-61
2022/05/18 08:37:37;;;;;;;;;;;;;;;15.95;58.69;100842.50;4808063;29;1356;-60
2022/05/18 08:40:03;;;;;;;;;;;;;;;16.87;54.86;100857.53;4808871;29;1903;-58
2022/05/18 08:42:28;;;;;;;;;;;;;;;16.87;53.68;100852.03;4808500;29;1221;-60
2022/05/18 08:44:54;;;;;;;;;;;;;;;17.08;53.89;100864.72;4808066;29;1010;-58
2022/05/18 08:47:29;;;;;;;;;;;;;;;17.16;54.62;100865.28;4804258;29;931;-59
2022/05/18 08:50:02;;;;;;;;;;;;;;;17.22;56.32;100880.66;4807859;29;964;-57
2022/05/18 08:52:46;;;;;;;;;;;;;;;17.30;56.34;100855.38;4806568;29;1289;-57
2022/05/18 08:55:35;;;;;;;;;;;;;;;17.33;56.60;100882.28;4807937;29;777;-57
2022/05/18 08:58:01;;;;;;;;;;;;;;;17.45;56.12;100885.59;4804499;29;812;-57
2022/05/18 09:00:33;;;;;;;;;;;;;;;17.15;55.73;100861.69;4806613;29;1963;-57
2022/05/18 09:03:03;;;;;;;;;;;;;;;17.65;54.72;100889.41;4807078;29;870;-58
2022/05/18 09:06:01;;;;;;;;;;;;;;;17.95;53.08;100861.03;4806184;29;1102;-57
2022/05/18 09:08:33;;;;;;;;;;;;;;;18.15;53.00;100869.50;4768406;29;1400;-57
2022/05/18 09:11:01;;;;;;;;;;;;;;;18.22;52.96;100857.06;4805747;29;1304;-58
2022/05/18 09:13:27;;;;;;;;;;;;;;;18.25;53.01;100864.75;4808311;29;1221;-57
2022/05/18 09:15:52;;;;;;;;;;;;;;;18.34;52.45;100867.75;4804550;29;1182;-58
2022/05/18 09:18:20;;;;;;;;;;;;;;;18.22;52.54;100868.06;4807755;29;1911;-58
2022/05/18 09:20:52;;;;;;;;;;;;;;;18.30;52.71;100894.19;4808450;29;1106;-58
2022/05/18 09:23:26;;;;;;;;;;;;;;;18.38;52.64;100882.56;4805385;29;1189;-59
2022/05/18 09:25:53;;;;;;;;;;;;;;;18.46;52.40;100890.22;4808458;29;967;-59
2022/05/18 09:28:18;;;;;;;;;;;;;;;18.10;53.34;100895.94;4808935;29;1012;-59
2022/05/18 09:31:02;;;;;;;;;;;;;;;18.17;53.07;100901.09;4808347;29;1209;-59
2022/05/18 09:33:46;;;;;;;;;;;;;;;18.55;51.60;100911.66;4812529;29;812;-58
2022/05/18 09:36:15;;;;;;;;;;;;;;;18.56;51.28;100924.34;4807770;29;848;-59
2022/05/18 09:38:50;;;;;;;;;;;;;;;18.61;50.44;100916.06;4812148;29;1915;-57
2022/05/18 09:41:16;;;;;;;;;;;;;;;18.39;50.22;100916.44;4812064;29;805;-56
2022/05/18 09:43:41;;;;;;;;;;;;;;;18.43;50.57;100909.28;4810616;29;1119;-56
2022/05/18 09:46:11;;;;;;;;;;;;;;;18.44;50.60;100911.72;4811321;29;946;-57
2022/05/18 09:48:37;;;;;;;;;;;;;;;18.27;49.91;100930.50;4810027;29;937;-57
2022/05/18 09:51:02;;;;;;;;;;;;;;;17.77;49.23;100911.13;4810941;29;790;-57
2022/05/18 09:53:28;;;;;;;;;;;;;;;17.61;48.01;100937.81;4812026;29;893;-57
2022/05/18 09:55:54;;;;;;;;;;;;;;;17.29;46.95;100952.66;4810471;29;1133;-57
2022/05/18 09:58:24;;;;;;;;;;;;;;;16.85;47.15;100964.09;4811906;29;1893;-57
2022/05/18 10:07:26;;;;;;;;;;;;;;;16.87;47.31;100979.22;4809966;29;848;-57
2022/05/18 10:09:21;;;;;;;;;;;;;;;17.84;53.67;101007.94;4811134;29;750;-56
2022/05/18 10:11:47;;;;;;;;;;;;;;;17.78;53.70;101009.00;4812006;29;924;-57
2022/05/18 10:14:14;;;;;;;;;;;;;;;17.77;53.07;101024.69;4811088;29;911;-58
2022/05/18 10:16:41;;;;;;;;;;;;;;;17.69;52.05;101025.25;4811346;29;885;-58
2022/05/18 10:19:11;;;;;;;;;;;;;;;17.69;51.98;101025.25;4811567;29;1915;-58
2022/05/18 10:21:40;;;;;;;;;;;;;;;17.59;52.15;101031.56;4810261;29;833;-59
2022/05/18 10:24:08;;;;;;;;;;;;;;;17.52;52.44;101036.53;4811852;29;810;-59
2022/05/18 10:26:35;;;;;;;;;;;;;;;17.53;52.43;101040.94;4806966;29;895;-59
2022/05/18 10:29:01;;;;;;;;;;;;;;;17.42;52.02;101056.56;4808398;29;1218;-58
2022/05/18 10:31:32;;;;;;;;;;;;;;;17.52;51.05;101060.44;4811183;29;842;-58
2022/05/18 10:34:08;;;;;;;;;;;;;;;17.73;50.47;101061.28;4811137;29;809;-58
2022/05/18 10:36:33;;;;;;;;;;;;;;;17.50;49.24;101068.97;4811057;29;816;-58
2022/05/18 10:39:01;;;;;;;;;;;;;;;17.58;49.13;101075.84;4809558;29;1978;-59
2022/05/18 10:41:35;;;;;;;;;;;;;;;17.51;48.81;101097.28;4811174;29;801;-58
2022/05/18 10:44:02;;;;;;;;;;;;;;;17.55;48.84;101088.22;4803176;29;862;-58
2022/05/18 10:46:32;;;;;;;;;;;;;;;17.64;48.03;101102.25;4803440;29;839;-59
2022/05/18 10:49:02;;;;;;;;;;;;;;;17.69;47.72;101116.00;4802121;29;1202;-56
2022/05/18 10:51:32;;;;;;;;;;;;;;;17.49;47.66;101104.97;4809867;29;1256;-56
2022/05/18 10:54:16;;;;;;;;;;;;;;;17.34;47.94;101106.59;4809151;29;1003;-57
2022/05/18 10:56:42;;;;;;;;;;;;;;;17.68;47.57;101111.59;4810713;29;1244;-57
2022/05/18 10:59:19;;;;;;;;;;;;;;;17.68;47.57;101111.59;4809043;29;1984;-57
2022/05/18 11:01:50;;;;;;;;;;;;;;;17.70;48.14;101112.16;4811062;29;779;-57
2022/05/18 11:04:21;;;;;;;;;;;;;;;17.72;47.92;101120.97;4807420;29;958;-57
2022/05/18 11:06:46;;;;;;;;;;;;;;;17.66;48.96;101121.25;4808502;29;971;-57
2022/05/18 11:09:18;;;;;;;;;;;;;;;17.65;49.15;101127.84;4810710;29;765;-57
2022/05/18 11:12:07;;;;;;;;;;;;;;;17.67;49.00;101123.72;4810775;29;933;-57
2022/05/18 11:14:44;;;;;;;;;;;;;;;17.64;49.02;101127.00;4799003;29;1402;-55
2022/05/18 11:17:29;;;;;;;;;;;;;;;17.52;49.09;101124.50;4810058;29;821;-57
2022/05/18 11:20:13;;;;;;;;;;;;;;;17.49;49.67;101132.44;4810423;29;1980;-58
2022/05/18 11:22:45;;;;;;;;;;;;;;;17.52;49.69;101123.69;4804966;29;880;-55
2022/05/18 11:25:25;;;;;;;;;;;;;;;17.47;49.08;101129.16;4810646;29;825;-55
2022/05/18 11:28:09;;;;;;;;;;;;;;;17.26;49.30;101135.44;4809730;29;1224;-55
2022/05/18 11:30:43;;;;;;;;;;;;;;;17.12;48.51;101144.44;4808998;29;796;-55
2022/05/18 11:33:14;;;;;;;;;;;;;;;17.41;47.65;101137.38;4810498;29;828;-55
2022/05/18 11:35:40;;;;;;;;;;;;;;;17.35;47.17;101146.72;4810414;29;836;-55
2022/05/18 11:38:11;;;;;;;;;;;;;;;17.40;47.87;101149.50;4810039;29;1079;-54
2022/05/18 11:40:39;;;;;;;;;;;;;;;17.45;47.48;101144.00;4809480;29;1204;-55
2022/05/18 11:43:30;;;;;;;;;;;;;;;17.47;47.13;101151.16;4808217;29;1185;-54
2022/05/18 11:46:08;;;;;;;;;;;;;;;17.81;48.51;101151.53;4807487;29;1141;-55
2022/05/18 11:51:58;;;;;;;;;;;;;;;18.06;49.51;101153.50;4809233;29;675;-54
2022/05/18 11:54:35;;;;;;;;;;;;;;;18.29;49.70;101162.31;4808929;29;840;-55
2022/05/18 11:57:21;;;;;;;;;;;;;;;18.17;49.29;101161.75;4804946;29;979;-54
2022/05/18 12:00:00;;;;;;;;;;;;;;;18.40;48.96;101144.69;4805557;29;1982;-54
2022/05/18 12:02:31;;;;;;;;;;;;;;;18.38;48.25;101146.06;4807567;29;920;-55
2022/05/18 12:05:16;;;;;;;;;;;;;;;18.53;47.21;101157.06;4808217;29;868;-57
2022/05/18 12:07:43;;;;;;;;;;;;;;;18.22;47.96;101159.00;4809646;29;899;-56
2022/05/18 12:10:15;;;;;;;;;;;;;;;17.76;48.32;101171.56;4803779;29;932;-55
2022/05/18 12:12:53;;;;;;;;;;;;;;;17.26;48.78;101160.19;4804741;29;733;-55
2022/05/18 12:15:59;;;;;;;;;;;;;;;17.19;48.89;101162.31;5098478;27;1337;-54
2022/05/18 12:18:36;;;;;;;;;;;;;;;17.50;47.36;101164.34;4991982;28;1213;-55
2022/05/18 12:21:11;;;;;;;;;;;;;;;17.47;46.29;101167.66;5066943;28;933;-56
2022/05/18 12:23:45;;;;;;;;;;;;;;;17.43;46.51;101162.69;5093400;28;717;-55
2022/05/18 12:26:11;;;;;;;;;;;;;;;17.39;46.07;101169.84;5071673;28;933;-55
2022/05/18 12:28:37;;;;;;;;;;;;;;;17.31;45.85;101175.84;5085011;28;1092;-55
2022/05/18 12:31:02;;;;;;;;;;;;;;;17.32;46.19;101180.25;5058239;28;1163;-55
2022/05/18 12:33:28;;;;;;;;;;;;;;;17.62;46.51;101184.19;5084456;28;1983;-56
2022/05/18 12:36:01;;;;;;;;;;;;;;;18.02;45.14;101187.31;5064586;28;1441;-54
2022/05/18 12:38:28;;;;;;;;;;;;;;;18.20;44.90;101180.47;5062729;28;1278;-55
2022/05/18 12:40:57;;;;;;;;;;;;;;;18.33;44.57;101179.94;5080630;28;1179;-57
2022/05/18 12:43:25;;;;;;;;;;;;;;;18.42;44.19;101170.00;5060799;28;1259;-55
2022/05/18 12:45:54;;;;;;;;;;;;;;;18.58;44.19;101176.31;5080506;28;1084;-55
2022/05/18 12:48:21;;;;;;;;;;;;;;;18.59;43.82;101183.50;5055191;28;1143;-55
2022/05/18 12:51:06;;;;;;;;;;;;;;;18.76;43.85;101191.44;5055063;28;849;-55
2022/05/18 12:53:41;;;;;;;;;;;;;;;17.87;46.21;101204.63;5073122;28;1973;-57
2022/05/18 12:56:10;;;;;;;;;;;;;;;17.67;46.68;101211.72;5068360;28;802;-56
2022/05/18 12:58:36;;;;;;;;;;;;;;;16.49;50.36;101205.53;5064986;28;1293;-56
2022/05/18 13:01:10;;;;;;;;;;;;;;;17.18;48.43;101212.91;5083463;28;897;-56
2022/05/18 13:03:39;;;;;;;;;;;;;;;17.54;47.53;101206.72;5074230;28;954;-56
2022/05/18 13:06:09;;;;;;;;;;;;;;;17.62;47.58;101197.94;5092141;28;814;-57
2022/05/18 13:08:37;;;;;;;;;;;;;;;17.70;47.37;101183.69;5082942;28;1494;-57
2022/05/18 13:11:08;;;;;;;;;;;;;;;17.78;47.20;101194.16;5082874;28;1238;-56
2022/05/18 13:13:34;;;;;;;;;;;;;;;17.84;47.00;101202.38;5076110;28;1905;-55
2022/05/18 13:16:00;;;;;;;;;;;;;;;17.89;46.79;101194.16;5074449;28;961;-55